This is the latest recevied weather packets stored in our database for station/object SQ9PDE-13. If no packets are shown the sender has not sent any weather packets the latest 10 day(s).
| Time | Temp. | Humidity | Pressure | Rain* | Wind** | Luminosity | Snow |
|---|---|---|---|---|---|---|---|
| 1777852280 | 10.56° C | 58% | 1015.8 hPa | - | - | - | - |
| 1777851979 | 10.56° C | 57% | 1015.8 hPa | - | - | - | - |
| 1777851679 | 11.11° C | 56% | 1015.8 hPa | - | - | - | - |
| 1777851409 | 11.67° C | 55% | 1015.8 hPa | - | - | - | - |
| 1777851378 | 11.67° C | 55% | 1015.8 hPa | - | - | - | - |
| 1777851209 | 11.67° C | 53% | 1015.7 hPa | - | - | - | - |
| 1777851078 | 11.67° C | 53% | 1015.7 hPa | - | - | - | - |
| 1777850777 | 11.67° C | 54% | 1015.7 hPa | - | - | - | - |
| 1777850477 | 11.67° C | 56% | 1015.8 hPa | - | - | - | - |
| 1777850176 | 11.11° C | 57% | 1015.9 hPa | - | - | - | - |
| 1777849876 | 11.67° C | 56% | 1015.8 hPa | - | - | - | - |
| 1777849575 | 11.67° C | 56% | 1015.8 hPa | - | - | - | - |
| 1777849275 | 11.67° C | 56% | 1015.8 hPa | - | - | - | - |
| 1777848974 | 11.67° C | 57% | 1015.9 hPa | - | - | - | - |
| 1777848673 | 11.67° C | 58% | 1015.9 hPa | - | - | - | - |
| 1777848373 | 11.67° C | 58% | 1015.9 hPa | - | - | - | - |
| 1777848136 | 11.67° C | 57% | 1015.8 hPa | - | - | - | - |
| 1777848072 | 11.67° C | 57% | 1015.8 hPa | - | - | - | - |
| 1777847772 | 11.67° C | 58% | 1015.8 hPa | - | - | - | - |
| 1777847471 | 12.22° C | 55% | 1015.7 hPa | - | - | - | - |
| 1777847202 | 12.78° C | 53% | 1015.8 hPa | - | - | - | - |
| 1777847171 | 12.78° C | 53% | 1015.8 hPa | - | - | - | - |
| 1777846870 | 12.78° C | 53% | 1015.7 hPa | - | - | - | - |
| 1777846570 | 12.78° C | 53% | 1015.7 hPa | - | - | - | - |
| 1777846269 | 12.78° C | 53% | 1015.8 hPa | - | - | - | - |
* Rain since midnight (hover to see other rain measurements)
** Current wind speed in m/s (hover to see current wind gust speed)